Time;durP1;ratioP1;P1;durP2;ratioP2;P2;SDS_P1;SDS_P2;PMS_P1;PMS_P2;Temp;Humidity;BMP_temperature;BMP_pressure;BME280_temperature;BME280_humidity;BME280_pressure;Samples;Min_cycle;Max_cycle;Signal;HPM_P1;HPM_P2
2022/11/27 03:03:48;;;;;;;25.60;17.10;;;;;;;6.30;72.53;101562.91;106131;1303;22235;-69
2022/11/27 03:06:17;;;;;;;26.30;15.80;;;;;;;6.60;70.22;101564.84;106174;1303;21964;-67
2022/11/27 03:09:11;;;;;;;21.60;13.10;;;;;;;6.75;68.96;101567.44;106193;1303;22007;-70
2022/11/27 03:11:39;;;;;;;19.00;11.70;;;;;;;6.86;67.98;101564.55;106134;1303;21958;-68
2022/11/27 03:14:06;;;;;;;20.80;10.90;;;;;;;6.94;67.44;101565.26;105773;1301;413153;-68
2022/11/27 03:16:59;;;;;;;16.60;10.80;;;;;;;7.02;67.23;101566.13;106399;1300;21946;-69
2022/11/27 03:19:30;;;;;;;15.20;10.50;;;;;;;7.04;67.02;101563.72;106347;1300;21957;-68
2022/11/27 03:21:58;;;;;;;17.50;10.50;;;;;;;7.08;66.82;101562.75;106489;1300;21951;-69
2022/11/27 03:24:24;;;;;;;15.30;10.00;;;;;;;7.17;66.41;101561.02;106405;1303;21974;-68
2022/11/27 03:26:50;;;;;;;16.90;10.50;;;;;;;7.19;66.20;101557.04;106424;1300;21976;-68
2022/11/27 03:29:37;;;;;;;16.30;10.20;;;;;;;7.20;66.13;101550.60;106414;1300;21956;-69
2022/11/27 03:32:03;;;;;;;17.50;10.10;;;;;;;7.17;66.03;101553.17;106505;1300;21946;-68
2022/11/27 03:34:30;;;;;;;15.20;10.10;;;;;;;7.17;65.88;101558.05;106418;1300;22844;-68
2022/11/27 03:36:56;;;;;;;16.40;10.00;;;;;;;7.20;65.64;101564.21;106358;1299;21951;-70
2022/11/27 03:39:22;;;;;;;18.60;10.60;;;;;;;7.22;65.59;101569.51;106438;1299;21947;-68
2022/11/27 03:42:09;;;;;;;14.50;9.90;;;;;;;7.22;65.11;101569.88;106154;1300;21949;-68
2022/11/27 03:44:47;;;;;;;19.90;10.80;;;;;;;7.29;64.90;101569.98;106470;1300;22088;-68
2022/11/27 03:48:01;;;;;;;16.50;9.70;;;;;;;7.25;64.96;101574.45;106430;1300;21970;-68
2022/11/27 03:50:37;;;;;;;16.30;9.60;;;;;;;7.18;64.80;101575.36;106247;1300;21959;-68
2022/11/27 03:53:06;;;;;;;16.60;10.80;;;;;;;7.14;64.71;101573.00;106459;1300;21952;-68
2022/11/27 03:55:51;;;;;;;16.40;10.40;;;;;;;7.07;64.32;101579.49;106323;1299;21962;-69
2022/11/27 03:58:22;;;;;;;16.50;9.80;;;;;;;7.02;64.26;101580.78;106276;1300;22416;-68
2022/11/27 04:00:49;;;;;;;16.80;10.90;;;;;;;7.04;64.18;101584.30;106412;1299;21958;-68
2022/11/27 04:03:21;;;;;;;16.60;10.60;;;;;;;7.05;63.95;101583.47;106278;1300;21954;-69
2022/11/27 04:05:47;;;;;;;18.40;11.20;;;;;;;6.86;64.25;101590.02;106299;1300;21946;-68
2022/11/27 04:08:13;;;;;;;15.80;10.10;;;;;;;6.77;64.53;101590.89;106307;1300;23668;-69
2022/11/27 04:10:40;;;;;;;16.50;10.30;;;;;;;6.81;64.43;101588.34;106300;1297;22004;-68
2022/11/27 04:13:05;;;;;;;17.00;10.20;;;;;;;6.82;64.33;101592.21;106177;1300;24308;-68
2022/11/27 04:15:31;;;;;;;15.80;9.80;;;;;;;6.81;64.17;101592.55;106256;1300;22406;-70
2022/11/27 04:17:57;;;;;;;18.80;11.30;;;;;;;6.84;63.85;101595.05;106297;1300;21966;-68
2022/11/27 04:20:23;;;;;;;15.80;10.00;;;;;;;6.83;63.90;101591.87;106096;1300;22799;-70
2022/11/27 04:22:49;;;;;;;18.70;11.10;;;;;;;6.83;63.93;101592.58;106414;1300;21977;-67
2022/11/27 04:25:14;;;;;;;16.90;11.30;;;;;;;6.65;64.33;101591.27;106294;1300;22064;-68
2022/11/27 04:27:40;;;;;;;15.50;10.10;;;;;;;6.34;65.35;101595.09;106424;1300;21957;-68
2022/11/27 04:30:08;;;;;;;15.60;10.10;;;;;;;6.29;65.95;101595.85;106426;1288;21959;-68
2022/11/27 04:32:36;;;;;;;19.60;11.00;;;;;;;6.30;66.12;101598.14;106304;1300;22679;-70
2022/11/27 04:35:03;;;;;;;16.90;10.70;;;;;;;6.33;65.95;101595.59;106237;1298;23061;-70
2022/11/27 04:37:29;;;;;;;17.50;10.80;;;;;;;6.33;66.02;101594.38;106239;1300;21964;-68
2022/11/27 04:39:55;;;;;;;17.30;10.80;;;;;;;6.32;65.96;101592.27;106314;1300;23656;-68
2022/11/27 04:42:20;;;;;;;17.30;11.30;;;;;;;6.37;66.18;101586.63;106243;1297;21947;-68
2022/11/27 04:44:47;;;;;;;18.40;10.00;;;;;;;6.40;66.00;101587.93;106428;1299;21966;-68
2022/11/27 04:47:12;;;;;;;19.80;10.90;;;;;;;6.48;65.65;101591.95;106470;1297;21957;-69
2022/11/27 04:49:38;;;;;;;18.00;11.30;;;;;;;6.51;65.80;101593.09;106634;1300;21947;-69
2022/11/27 04:52:04;;;;;;;19.50;11.80;;;;;;;6.56;65.57;101592.48;106229;1303;22157;-68
2022/11/27 04:54:31;;;;;;;15.40;10.80;;;;;;;6.58;65.50;101590.08;106194;1298;22980;-68
2022/11/27 04:56:57;;;;;;;20.80;10.50;;;;;;;6.61;65.53;101590.86;106384;1300;21969;-69
2022/11/27 04:59:22;;;;;;;16.50;10.00;;;;;;;6.64;65.18;101594.40;106303;1300;21945;-69
2022/11/27 05:01:48;;;;;;;16.50;10.70;;;;;;;6.62;65.16;101598.03;106283;1300;21998;-71
2022/11/27 05:04:14;;;;;;;27.10;11.50;;;;;;;6.64;64.87;101605.40;106324;1300;21944;-69
2022/11/27 05:06:41;;;;;;;22.00;12.70;;;;;;;6.74;64.67;101608.08;106222;1299;21948;-71
2022/11/27 05:09:07;;;;;;;17.40;11.30;;;;;;;6.79;64.65;101610.83;106344;1300;21956;-70
2022/11/27 05:11:33;;;;;;;26.10;10.90;;;;;;;6.78;64.89;101610.11;106711;1300;21958;-70
2022/11/27 05:14:14;;;;;;;17.90;10.50;;;;;;;6.80;64.90;101607.35;106838;1301;21959;-69
2022/11/27 05:16:40;;;;;;;18.30;11.50;;;;;;;6.79;64.35;101615.70;106598;1301;21970;-71
2022/11/27 05:19:08;;;;;;;16.10;10.80;;;;;;;6.73;64.35;101615.73;106467;1300;21951;-69
2022/11/27 05:21:34;;;;;;;23.60;12.40;;;;;;;6.69;64.46;101618.41;106271;1300;21966;-70
2022/11/27 05:24:00;;;;;;;19.00;11.30;;;;;;;6.60;64.61;101615.60;106308;1300;21954;-68
2022/11/27 05:26:25;;;;;;;18.80;10.80;;;;;;;6.58;64.84;101616.61;106390;1299;21999;-69
2022/11/27 05:28:51;;;;;;;21.10;11.70;;;;;;;6.54;64.77;101615.48;106814;1300;21964;-70
2022/11/27 05:31:17;;;;;;;20.50;11.60;;;;;;;6.53;64.62;101619.98;106824;1301;21951;-70
2022/11/27 05:33:42;;;;;;;24.00;12.70;;;;;;;6.64;64.76;101623.73;106786;1301;21949;-70
2022/11/27 05:36:08;;;;;;;18.10;10.60;;;;;;;6.71;64.67;101623.02;106597;1300;21969;-67
2022/11/27 05:38:34;;;;;;;18.80;11.00;;;;;;;6.78;64.55;101625.95;106205;1300;22105;-70
2022/11/27 05:41:02;;;;;;;22.70;12.10;;;;;;;6.80;64.65;101626.71;106230;1302;21935;-70
2022/11/27 05:43:29;;;;;;;18.10;11.40;;;;;;;6.81;64.48;101624.64;106316;1300;23722;-68
2022/11/27 05:45:54;;;;;;;20.00;12.10;;;;;;;6.78;64.46;101626.83;106365;1300;21951;-68
2022/11/27 05:48:20;;;;;;;17.70;11.30;;;;;;;6.65;64.83;101628.98;106309;1300;21956;-68
2022/11/27 05:50:46;;;;;;;19.90;11.70;;;;;;;6.74;64.80;101632.50;106723;1300;21998;-67
2022/11/27 05:53:12;;;;;;;19.50;11.60;;;;;;;6.74;64.32;101634.23;106408;1300;21960;-69
2022/11/27 05:55:38;;;;;;;17.70;11.00;;;;;;;6.78;64.59;101634.52;106303;1300;21955;-69
2022/11/27 05:58:04;;;;;;;19.10;11.40;;;;;;;6.82;64.68;101638.98;106296;1300;21970;-67
2022/11/27 06:00:30;;;;;;;18.60;11.30;;;;;;;6.84;64.51;101639.19;106423;1300;21945;-66
2022/11/27 06:02:56;;;;;;;14.80;10.30;;;;;;;6.77;64.42;101640.95;106448;1299;21956;-69
2022/11/27 06:05:21;;;;;;;17.20;11.00;;;;;;;6.76;64.67;101640.05;106558;1300;21958;-70
2022/11/27 06:07:47;;;;;;;16.80;11.00;;;;;;;6.74;64.60;101642.78;106798;1301;21950;-69
2022/11/27 06:10:14;;;;;;;23.40;10.80;;;;;;;6.75;64.89;101642.11;106808;1301;21963;-67
2022/11/27 06:12:40;;;;;;;15.70;10.50;;;;;;;6.80;65.09;101642.92;106809;1300;21949;-68
2022/11/27 06:15:06;;;;;;;15.10;9.80;;;;;;;6.92;65.01;101641.98;106708;1300;22103;-67
2022/11/27 06:17:32;;;;;;;19.20;11.70;;;;;;;6.98;65.07;101647.02;106439;1300;23640;-70
2022/11/27 06:19:58;;;;;;;15.20;9.90;;;;;;;6.97;64.97;101651.34;106356;1300;21964;-69
2022/11/27 06:22:24;;;;;;;21.90;10.80;;;;;;;7.00;65.08;101652.29;106402;1300;21960;-69
2022/11/27 06:24:50;;;;;;;21.20;10.70;;;;;;;7.05;64.98;101647.52;106610;1299;21967;-67
2022/11/27 06:27:16;;;;;;;29.40;12.90;;;;;;;7.10;65.16;101641.86;106858;1301;21956;-68
2022/11/27 06:29:41;;;;;;;21.20;11.40;;;;;;;7.15;65.13;101635.17;106800;1301;21997;-69
2022/11/27 06:32:07;;;;;;;24.50;11.20;;;;;;;7.18;65.23;101634.54;106813;1301;21953;-64
2022/11/27 06:34:35;;;;;;;17.00;10.60;;;;;;;7.24;65.50;101636.59;104993;1298;1003163;-67
2022/11/27 06:37:01;;;;;;;21.80;11.90;;;;;;;7.30;65.32;101631.12;106336;1300;23629;-67
2022/11/27 06:39:26;;;;;;;19.90;11.70;;;;;;;7.36;64.82;101630.03;106322;1300;21941;-68
2022/11/27 06:41:52;;;;;;;18.70;10.70;;;;;;;7.45;64.93;101627.42;106333;1300;21950;-66
2022/11/27 06:44:18;;;;;;;22.60;12.40;;;;;;;7.43;64.27;101625.11;106246;1302;21958;-68
2022/11/27 06:46:44;;;;;;;19.50;11.80;;;;;;;7.47;64.72;101629.74;106352;1300;21958;-68
2022/11/27 06:49:09;;;;;;;16.90;10.80;;;;;;;7.52;64.82;101634.89;106293;1298;21950;-68
2022/11/27 06:51:36;;;;;;;18.00;10.90;;;;;;;7.56;64.89;101634.80;106321;1300;21964;-68
2022/11/27 06:54:02;;;;;;;16.20;10.60;;;;;;;7.58;64.27;101631.88;106661;1300;21995;-65
2022/11/27 06:56:29;;;;;;;19.30;10.90;;;;;;;7.58;64.31;101633.62;106832;1301;21926;-68
2022/11/27 06:58:56;;;;;;;19.70;11.80;;;;;;;7.57;64.14;101637.45;106882;1301;22082;-68
2022/11/27 07:01:23;;;;;;;18.00;11.00;;;;;;;7.63;64.62;101637.73;106837;1301;21940;-67
2022/11/27 07:03:49;;;;;;;18.50;11.30;;;;;;;7.68;64.59;101635.02;106334;1300;23728;-67
2022/11/27 07:06:18;;;;;;;17.50;11.20;;;;;;;7.79;63.97;101642.40;106242;1300;21958;-67
2022/11/27 07:08:43;;;;;;;17.60;11.90;;;;;;;7.83;63.56;101648.62;106318;1300;21952;-71
2022/11/27 07:11:17;;;;;;;25.70;11.40;;;;;;;7.78;63.88;101651.83;106530;1300;21951;-70
2022/11/27 15:09:36;;;;;;;8.50;5.90;;;;;;;4.11;83.74;101694.80;105194;1311;557264;-68
2022/11/27 15:12:20;;;;;;;11.50;6.40;;;;;;;5.86;74.97;101683.02;105216;1315;23551;-68
2022/11/27 17:23:45;;;;;;;21.80;13.90;;;;;;;3.69;84.55;101718.22;105244;1309;547821;-60
2022/11/27 17:26:16;;;;;;;21.70;16.10;;;;;;;6.01;75.33;101713.77;105316;1315;21972;-59
2022/11/27 17:28:42;;;;;;;33.00;23.50;;;;;;;6.62;71.69;101714.55;105281;1315;22081;-65
2022/11/27 17:31:19;;;;;;;43.70;29.60;;;;;;;6.86;70.30;101708.15;105308;1316;23892;-61
2022/11/27 17:33:46;;;;;;;34.70;20.30;;;;;;;7.06;69.63;101700.23;105338;1309;21978;-61
2022/11/27 17:36:16;;;;;;;33.70;20.60;;;;;;;7.26;69.18;101693.89;105153;1308;450654;-59
2022/11/27 17:38:42;;;;;;;25.10;17.60;;;;;;;7.24;68.88;101698.56;105768;1308;21963;-64
2022/11/27 17:41:13;;;;;;;26.60;19.10;;;;;;;7.25;68.62;101695.27;105813;1310;22060;-64
